createdAt,value
2019-02-27T00:03:56.115Z,10.67
2019-02-27T00:09:32.661Z,12.00
2019-02-27T00:12:21.851Z,11.60
2019-02-27T00:15:13.083Z,11.33
2019-02-27T00:17:44.683Z,10.30
2019-02-27T00:20:37.738Z,11.70
2019-02-27T00:23:15.192Z,12.37
2019-02-27T00:25:45.767Z,10.90
2019-02-27T00:28:28.210Z,10.90
2019-02-27T00:31:11.550Z,10.53
2019-02-27T00:33:43.177Z,10.47
2019-02-27T00:36:13.969Z,10.40
2019-02-27T00:39:04.721Z,10.70
2019-02-27T00:41:36.924Z,11.13
2019-02-27T00:44:07.517Z,10.03
2019-02-27T00:49:34.392Z,10.83
2019-02-27T00:52:21.811Z,9.67
2019-02-27T00:55:04.660Z,10.47
2019-02-27T00:57:55.554Z,10.17
2019-02-27T01:01:04.317Z,9.67
2019-02-27T01:03:34.924Z,10.07
2019-02-27T01:06:24.835Z,10.27
2019-02-27T01:08:59.026Z,10.37
2019-02-27T01:11:43.520Z,9.93
2019-02-27T01:14:36.933Z,10.37
2019-02-27T01:19:56.509Z,10.50
2019-02-27T01:22:38.668Z,10.50
2019-02-27T01:25:23.144Z,10.57
2019-02-27T01:27:54.359Z,11.20
2019-02-27T01:30:44.052Z,11.00
2019-02-27T01:33:37.786Z,10.90
2019-02-27T01:36:11.285Z,10.90
2019-02-27T01:38:53.168Z,9.50
2019-02-27T01:41:24.564Z,9.60
2019-02-27T01:44:01.481Z,10.40
2019-02-27T01:46:44.047Z,10.90
2019-02-27T01:49:16.131Z,9.97
2019-02-27T01:51:59.142Z,9.87
2019-02-27T01:54:34.823Z,10.20
2019-02-27T01:57:08.517Z,10.67
2019-02-27T02:05:50.432Z,10.57
2019-02-27T02:08:32.165Z,9.33
2019-02-27T02:11:03.776Z,11.00
2019-02-27T02:14:14.255Z,10.63
2019-02-27T02:17:22.888Z,10.33
2019-02-27T02:20:31.842Z,10.10
2019-02-27T02:26:49.107Z,10.30
2019-02-27T02:29:47.590Z,9.60
2019-02-27T02:32:41.885Z,9.80
2019-02-27T02:35:55.947Z,10.53
2019-02-27T02:39:05.931Z,9.73
2019-02-27T02:42:24.522Z,10.37
2019-02-27T02:45:37.571Z,10.10
2019-02-27T02:48:46.199Z,10.70
2019-02-27T02:51:50.005Z,9.70
2019-02-27T02:55:12.728Z,10.60
2019-02-27T02:58:12.427Z,9.90
2019-02-27T03:01:15.268Z,10.73
2019-02-27T03:04:15.093Z,10.90
2019-02-27T03:07:23.793Z,10.67
2019-02-27T03:10:33.982Z,11.17
2019-02-27T03:13:43.818Z,10.10
2019-02-27T03:16:27.338Z,10.30
2019-02-27T03:19:41.265Z,11.80
2019-02-27T03:22:51.762Z,10.97
2019-02-27T03:25:44.768Z,9.83
2019-02-27T03:28:53.712Z,10.27
2019-02-27T03:31:57.874Z,9.63
2019-02-27T03:35:03.643Z,11.07
2019-02-27T03:38:12.340Z,10.40
2019-02-27T03:41:22.837Z,10.47
2019-02-27T03:44:40.700Z,11.63
2019-02-27T03:47:52.162Z,11.40
2019-02-27T03:54:09.106Z,11.07
2019-02-27T03:57:02.113Z,11.43
2019-02-27T04:00:11.365Z,11.80
2019-02-27T04:03:07.351Z,10.77
2019-02-27T04:06:20.117Z,10.47
2019-02-27T04:09:18.613Z,10.53
2019-02-27T04:11:53.693Z,10.77
2019-02-27T04:14:43.735Z,11.37
2019-02-27T04:17:14.314Z,10.23
2019-02-27T04:19:46.559Z,11.10
2019-02-27T04:25:13.653Z,10.53
2019-02-27T04:30:35.415Z,10.60
2019-02-27T04:33:06.036Z,10.90
2019-02-27T04:35:47.936Z,10.97
2019-02-27T04:38:43.317Z,11.20
2019-02-27T04:41:17.858Z,10.43
2019-02-27T04:43:51.733Z,9.33
2019-02-27T04:46:41.406Z,10.47
2019-02-27T04:49:12.023Z,10.50
2019-02-27T04:51:42.649Z,10.70
2019-02-27T04:54:25.297Z,9.87
2019-02-27T04:57:08.158Z,10.97
2019-02-27T04:59:39.104Z,10.07
2019-02-27T05:02:29.021Z,11.00
2019-02-27T05:05:06.148Z,11.00
2019-02-27T05:07:42.955Z,11.43
2019-02-27T05:10:24.735Z,9.67
2019-02-27T05:12:55.349Z,10.60
2019-02-27T05:15:26.020Z,10.63
2019-02-27T05:18:08.000Z,11.47
2019-02-27T05:20:50.171Z,11.57
2019-02-27T05:23:33.434Z,11.63
2019-02-27T05:26:03.882Z,11.37
2019-02-27T05:28:46.583Z,11.00
2019-02-27T05:31:19.018Z,12.40
2019-02-27T05:34:28.784Z,11.47
2019-02-27T05:43:33.778Z,11.53
2019-02-27T05:48:47.079Z,11.70
2019-02-27T05:54:50.030Z,13.33
2019-02-27T05:57:25.332Z,12.63
2019-02-27T06:06:28.259Z,13.20
2019-02-27T06:08:52.093Z,13.90
2019-02-27T06:11:33.101Z,13.10
2019-02-27T06:14:54.786Z,14.03
2019-02-27T06:23:49.032Z,12.00
2019-02-27T06:26:32.195Z,13.73
2019-02-27T06:29:37.831Z,14.13
2019-02-27T06:32:22.182Z,13.50
2019-02-27T06:35:13.755Z,13.37
2019-02-27T06:40:35.709Z,13.77
2019-02-27T06:43:18.770Z,16.00
2019-02-27T06:46:00.920Z,14.83
2019-02-27T06:48:31.521Z,16.20
2019-02-27T06:51:36.663Z,17.10
2019-02-27T06:54:02.050Z,15.93
2019-02-27T06:57:12.095Z,17.30
2019-02-27T07:05:48.247Z,16.60
2019-02-27T07:14:39.081Z,19.90
2019-02-27T07:17:15.737Z,20.77
2019-02-27T07:20:05.724Z,22.10
2019-02-27T07:22:50.942Z,21.30
2019-02-27T07:25:36.345Z,20.57
2019-02-27T07:28:25.828Z,21.13
2019-02-27T07:31:07.407Z,19.90
2019-02-27T07:33:40.576Z,22.20
2019-02-27T07:36:36.022Z,24.20
2019-02-27T07:39:15.207Z,24.47
2019-02-27T07:42:04.872Z,23.03
2019-02-27T07:44:35.894Z,21.73
2019-02-27T07:50:54.701Z,22.00
2019-02-27T07:53:44.448Z,23.10
2019-02-27T07:56:15.276Z,22.90
2019-02-27T08:01:27.558Z,19.83
2019-02-27T08:04:19.070Z,18.27
2019-02-27T08:06:42.969Z,17.77
2019-02-27T08:09:45.925Z,18.23
2019-02-27T08:12:17.525Z,20.20
2019-02-27T08:15:14.326Z,18.27
2019-02-27T08:17:50.854Z,16.37
2019-02-27T08:20:32.375Z,15.63
2019-02-27T08:23:15.515Z,15.77
2019-02-27T08:25:46.332Z,14.67
2019-02-27T08:28:17.128Z,15.53
2019-02-27T08:34:01.054Z,14.10
2019-02-27T08:36:32.124Z,13.97
2019-02-27T08:39:24.429Z,14.13
2019-02-27T08:41:55.120Z,13.00
2019-02-27T08:44:38.270Z,13.67
2019-02-27T08:47:10.860Z,13.13
2019-02-27T08:50:34.904Z,13.33
2019-02-27T08:52:58.881Z,13.70
2019-02-27T08:55:29.447Z,14.40
2019-02-27T08:58:19.210Z,15.27
2019-02-27T09:00:51.804Z,13.47
2019-02-27T09:03:30.408Z,14.33
2019-02-27T09:06:01.081Z,14.27
2019-02-27T09:08:44.326Z,13.83
2019-02-27T09:11:26.684Z,14.03
2019-02-27T09:16:53.765Z,13.70
2019-02-27T09:19:35.981Z,14.30
2019-02-27T09:22:08.515Z,14.90
2019-02-27T09:24:58.268Z,13.27
2019-02-27T09:27:41.128Z,13.93
2019-02-27T09:36:35.725Z,12.20
2019-02-27T09:42:13.282Z,12.90
2019-02-27T09:44:45.080Z,12.80
2019-02-27T09:47:23.143Z,11.10
2019-02-27T09:50:19.264Z,9.80
2019-02-27T09:52:51.927Z,9.73
2019-02-27T09:56:01.083Z,9.33
2019-02-27T09:58:33.265Z,9.10
2019-02-27T10:04:36.537Z,7.70
2019-02-27T10:07:07.262Z,6.50
2019-02-27T10:09:48.996Z,5.20
2019-02-27T10:12:19.646Z,5.03
2019-02-27T10:14:50.913Z,5.50
2019-02-27T10:17:28.650Z,4.40
2019-02-27T10:23:09.306Z,6.30
2019-02-27T10:25:43.466Z,8.27
2019-02-27T10:28:27.085Z,8.13
2019-02-27T10:30:57.717Z,7.53
2019-02-27T10:37:18.241Z,7.33
2019-02-27T10:39:52.921Z,6.57
2019-02-27T10:42:42.778Z,5.87
2019-02-27T10:45:51.233Z,6.30
2019-02-27T10:51:24.638Z,5.00
2019-02-27T10:54:17.184Z,5.07
2019-02-27T10:57:31.474Z,4.63
2019-02-27T11:02:53.594Z,5.90
2019-02-27T11:06:06.048Z,6.10
2019-02-27T11:08:58.840Z,7.53
2019-02-27T11:11:32.177Z,6.53
2019-02-27T11:14:23.757Z,6.97
2019-02-27T11:16:55.409Z,7.33
2019-02-27T11:25:42.115Z,5.50
2019-02-27T11:31:35.119Z,5.37
2019-02-27T11:34:26.689Z,4.80
2019-02-27T11:39:39.100Z,5.00
2019-02-27T11:42:23.592Z,4.30
2019-02-27T11:44:54.554Z,4.00
2019-02-27T11:47:25.305Z,3.67
2019-02-27T11:50:10.483Z,3.20
2019-02-27T11:52:56.089Z,3.07
2019-02-27T11:58:22.261Z,2.80
2019-02-27T12:04:07.385Z,2.30
2019-02-27T12:06:57.390Z,2.30
2019-02-27T12:09:47.652Z,2.30
2019-02-27T12:12:41.060Z,2.53
2019-02-27T12:15:12.849Z,2.40
2019-02-27T12:21:16.170Z,2.57
2019-02-27T12:32:16.671Z,2.40
2019-02-27T12:34:59.099Z,2.40
2019-02-27T12:37:34.087Z,2.67
2019-02-27T12:40:27.929Z,2.60
2019-02-27T12:45:57.674Z,2.43
2019-02-27T12:49:13.953Z,3.07
2019-02-27T12:54:49.482Z,3.00
2019-02-27T12:57:21.959Z,2.50
2019-02-27T13:00:31.891Z,3.10
2019-02-27T13:03:02.600Z,3.20
2019-02-27T13:08:46.735Z,4.13
2019-02-27T13:11:19.045Z,4.57
2019-02-27T13:14:08.757Z,3.77
2019-02-27T13:16:43.478Z,3.40
2019-02-27T13:19:17.312Z,3.33
2019-02-27T13:24:50.946Z,3.80
2019-02-27T13:27:33.592Z,3.77
2019-02-27T13:30:23.527Z,3.87
2019-02-27T13:33:13.281Z,3.80
2019-02-27T13:35:46.800Z,3.70
2019-02-27T13:48:41.973Z,3.30
2019-02-27T13:51:15.157Z,3.70
2019-02-27T13:54:00.549Z,3.80
2019-02-27T13:56:53.905Z,3.90
2019-02-27T14:02:46.273Z,3.97
2019-02-27T14:05:17.665Z,3.70
2019-02-27T14:08:01.451Z,3.20
2019-02-27T14:10:32.365Z,3.63
2019-02-27T14:13:08.781Z,3.10
2019-02-27T14:15:45.284Z,3.47
2019-02-27T14:18:17.490Z,2.80
2019-02-27T14:24:48.093Z,3.10
2019-02-27T14:27:14.580Z,3.00
2019-02-27T14:33:14.488Z,3.13
2019-02-27T14:35:56.916Z,3.13
2019-02-27T14:41:51.390Z,2.10
2019-02-27T14:50:24.340Z,3.67
2019-02-27T14:59:21.750Z,4.27
2019-02-27T15:02:05.397Z,6.10
2019-02-27T15:11:27.097Z,5.20
2019-02-27T15:14:04.930Z,8.63
2019-02-27T15:19:48.941Z,2.63
2019-02-27T15:22:20.528Z,2.47
2019-02-27T15:25:30.659Z,3.67
2019-02-27T15:28:05.602Z,2.07
2019-02-27T15:30:55.333Z,2.07
2019-02-27T15:33:56.473Z,2.13
2019-02-27T15:39:42.116Z,2.70
2019-02-27T15:42:12.973Z,3.17
2019-02-27T15:44:45.362Z,3.27
2019-02-27T15:47:32.708Z,2.90
2019-02-27T15:56:05.421Z,2.80
2019-02-27T16:01:43.924Z,3.00
2019-02-27T16:07:29.892Z,2.30
2019-02-27T16:10:23.098Z,2.07
2019-02-27T16:22:54.602Z,2.13
2019-02-27T16:25:25.436Z,1.90
2019-02-27T16:31:13.477Z,1.83
2019-02-27T16:33:48.263Z,2.20
2019-02-27T16:36:36.751Z,2.27
2019-02-27T16:39:27.391Z,2.70
2019-02-27T16:42:07.410Z,2.47
2019-02-27T16:45:16.092Z,2.33
2019-02-27T16:51:00.769Z,2.60
2019-02-27T17:02:35.500Z,4.00
2019-02-27T17:05:14.227Z,3.47
2019-02-27T17:10:51.763Z,3.13
2019-02-27T17:13:39.378Z,2.70
2019-02-27T17:16:11.914Z,2.90
2019-02-27T17:22:25.985Z,5.20
2019-02-27T17:25:11.434Z,27.20
2019-02-27T17:27:37.086Z,26.73
2019-02-27T17:30:28.878Z,25.60
2019-02-27T17:33:12.833Z,15.83
2019-02-27T17:36:00.527Z,9.50
2019-02-27T17:47:47.774Z,4.43
2019-02-27T17:50:56.696Z,4.23
2019-02-27T17:53:37.752Z,3.53
2019-02-27T17:59:50.352Z,3.77
2019-02-27T18:03:05.098Z,3.80
2019-02-27T18:05:39.716Z,3.00
2019-02-27T18:08:15.962Z,2.70
2019-02-27T18:11:06.045Z,2.40
2019-02-27T18:26:04.948Z,6.17
2019-02-27T18:31:46.131Z,7.27
2019-02-27T18:34:30.613Z,8.60
2019-02-27T18:37:08.568Z,7.70
2019-02-27T18:39:41.057Z,4.90
2019-02-27T18:42:17.240Z,5.13
2019-02-27T18:54:03.152Z,4.10
2019-02-27T18:59:57.582Z,5.80
2019-02-27T19:03:25.912Z,5.93
2019-02-27T19:09:20.286Z,7.90
2019-02-27T19:12:06.979Z,7.87
2019-02-27T19:26:59.176Z,6.27
2019-02-27T19:29:31.872Z,5.70
2019-02-27T19:32:50.139Z,5.00
2019-02-27T19:35:34.487Z,3.83
2019-02-27T19:44:03.105Z,3.30
2019-02-27T19:49:43.896Z,35.33
2019-02-27T19:52:55.208Z,33.27
2019-02-27T20:01:12.435Z,34.20
2019-02-27T20:06:58.335Z,4.10
2019-02-27T20:10:15.103Z,4.40
2019-02-27T20:19:42.608Z,4.67
2019-02-27T20:25:35.692Z,5.20
2019-02-27T20:28:08.894Z,4.93
2019-02-27T20:30:51.684Z,5.60
2019-02-27T20:45:05.476Z,5.43
2019-02-27T20:47:59.990Z,5.50
2019-02-27T20:56:45.092Z,5.17
2019-02-27T20:59:26.081Z,6.17
2019-02-27T21:11:38.683Z,5.87
2019-02-27T21:20:25.323Z,5.80
2019-02-27T21:23:52.081Z,5.27
2019-02-27T21:29:18.056Z,5.30
2019-02-27T21:31:53.268Z,6.30
2019-02-27T21:37:45.587Z,6.10
2019-02-27T21:40:22.150Z,6.57
2019-02-27T21:46:08.314Z,5.87
2019-02-27T21:48:41.082Z,6.53
2019-02-27T21:51:23.251Z,6.67
2019-02-27T21:54:08.150Z,6.30
2019-02-27T21:56:59.566Z,6.37
2019-02-27T21:59:30.391Z,6.13
2019-02-27T22:02:02.495Z,6.10
2019-02-27T22:04:52.436Z,6.07
2019-02-27T22:10:23.317Z,5.63
2019-02-27T22:13:12.931Z,6.13
2019-02-27T22:15:43.590Z,6.07
2019-02-27T22:18:33.582Z,5.93
2019-02-27T22:21:04.638Z,6.20
2019-02-27T22:23:44.870Z,6.13
2019-02-27T22:27:02.707Z,6.10
2019-02-27T22:29:55.844Z,5.97
2019-02-27T22:33:15.837Z,5.50
2019-02-27T22:35:57.884Z,5.70
2019-02-27T22:42:14.437Z,5.47
2019-02-27T22:44:44.686Z,4.90
2019-02-27T22:50:13.558Z,5.37
2019-02-27T22:53:03.528Z,5.53
2019-02-27T22:55:36.216Z,5.87
2019-02-27T23:04:53.021Z,6.37
2019-02-27T23:07:22.310Z,6.67
2019-02-27T23:13:47.439Z,7.17
2019-02-27T23:16:22.737Z,6.97
2019-02-27T23:19:13.135Z,7.80
2019-02-27T23:24:38.363Z,7.87
2019-02-27T23:29:58.497Z,6.83
2019-02-27T23:32:41.051Z,8.30
2019-02-27T23:38:13.239Z,7.60
2019-02-27T23:43:27.606Z,7.80
2019-02-27T23:46:10.280Z,7.40
2019-02-27T23:48:59.909Z,7.30
2019-02-27T23:51:30.566Z,7.43
2019-02-27T23:54:20.468Z,7.63
2019-02-27T23:56:52.232Z,7.67
2019-02-27T23:59:29.080Z,8.27
